Time;durP1;ratioP1;P1;durP2;ratioP2;P2;SDS_P1;SDS_P2;PMS_P1;PMS_P2;Temp;Humidity;BMP_temperature;BMP_pressure;BME280_temperature;BME280_humidity;BME280_pressure;Samples;Min_cycle;Max_cycle;Signal;HPM_P1;HPM_P2
2021/09/03 00:01:45;;;;;;;15.77;12.15;;;14.20;99.90;;;;;;4934433;29;20108;-70
2021/09/03 00:04:11;;;;;;;18.63;12.45;;;14.10;99.90;;;;;;4933529;29;20027;-69
2021/09/03 00:06:36;;;;;;;17.63;12.45;;;14.10;99.90;;;;;;4933119;29;20035;-69
2021/09/03 00:09:02;;;;;;;16.80;11.93;;;14.10;99.90;;;;;;4933178;29;20515;-71
2021/09/03 00:11:28;;;;;;;16.38;12.15;;;14.10;99.90;;;;;;4933566;29;20392;-69
2021/09/03 00:13:54;;;;;;;16.90;12.55;;;14.10;99.90;;;;;;4933562;29;20028;-71
2021/09/03 00:16:19;;;;;;;15.60;11.52;;;14.00;99.90;;;;;;4934647;29;20030;-71
2021/09/03 00:18:48;;;;;;;15.30;11.80;;;14.00;99.90;;;;;;4934220;29;20031;-70
2021/09/03 00:21:14;;;;;;;17.33;12.48;;;14.00;99.90;;;;;;4934090;29;20086;-70
2021/09/03 00:23:39;;;;;;;17.55;12.32;;;13.90;99.90;;;;;;4933602;29;20082;-71
2021/09/03 00:26:05;;;;;;;16.50;12.10;;;13.90;99.90;;;;;;4932838;29;20175;-72
2021/09/03 00:28:31;;;;;;;15.38;12.13;;;13.90;99.90;;;;;;4934111;29;20048;-71
2021/09/03 00:30:56;;;;;;;15.30;12.13;;;13.90;99.90;;;;;;4932692;29;20079;-70
2021/09/03 00:33:22;;;;;;;14.48;11.48;;;13.90;99.90;;;;;;4935111;29;20520;-72
2021/09/03 00:35:47;;;;;;;15.43;12.98;;;13.80;99.90;;;;;;4933668;29;20028;-71
2021/09/03 00:38:13;;;;;;;17.88;12.63;;;13.80;99.90;;;;;;4934421;29;20028;-72
2021/09/03 00:40:38;;;;;;;19.02;12.82;;;13.80;99.90;;;;;;4933294;29;20035;-69
2021/09/03 00:43:04;;;;;;;16.92;11.98;;;13.80;99.90;;;;;;4933539;29;20035;-70
2021/09/03 00:45:30;;;;;;;15.88;12.30;;;13.80;99.90;;;;;;4934449;29;20047;-70
2021/09/03 00:47:55;;;;;;;19.73;13.40;;;13.80;99.90;;;;;;4933453;29;20055;-70
2021/09/03 00:50:21;;;;;;;17.95;13.30;;;13.70;99.90;;;;;;4934518;29;20391;-72
2021/09/03 00:52:47;;;;;;;21.20;15.02;;;13.70;99.90;;;;;;4937771;29;20031;-71
2021/09/03 00:55:12;;;;;;;15.02;12.70;;;13.70;99.90;;;;;;4936005;29;20019;-70
2021/09/03 00:57:38;;;;;;;20.08;14.63;;;13.70;99.90;;;;;;4936694;29;20032;-70
2021/09/03 01:00:04;;;;;;;18.50;13.95;;;13.70;99.90;;;;;;4935795;29;20366;-70
2021/09/03 01:02:30;;;;;;;17.05;13.80;;;13.60;99.90;;;;;;4936997;29;20020;-70
2021/09/03 01:04:55;;;;;;;17.73;13.43;;;13.60;99.90;;;;;;4935875;29;20079;-70
2021/09/03 01:07:21;;;;;;;19.10;14.75;;;13.60;99.90;;;;;;4937754;29;20036;-70
2021/09/03 01:09:47;;;;;;;17.33;14.13;;;13.60;99.90;;;;;;4935441;29;20067;-71
2021/09/03 01:12:13;;;;;;;18.10;14.27;;;13.50;99.90;;;;;;4936217;29;20066;-70
2021/09/03 01:14:39;;;;;;;17.50;13.90;;;13.50;99.90;;;;;;4937469;29;20028;-70
2021/09/03 01:17:06;;;;;;;19.05;14.85;;;13.50;99.90;;;;;;4935017;29;20067;-71
2021/09/03 01:19:32;;;;;;;19.65;13.55;;;13.50;99.90;;;;;;4935968;29;20431;-73
2021/09/03 01:21:57;;;;;;;20.08;14.95;;;13.50;99.90;;;;;;4936917;29;20031;-71
2021/09/03 01:24:23;;;;;;;22.02;14.10;;;13.50;99.90;;;;;;4936831;29;20035;-72
2021/09/03 01:26:48;;;;;;;23.38;15.07;;;13.50;99.90;;;;;;4936805;29;20047;-71
2021/09/03 01:29:14;;;;;;;17.88;14.43;;;13.50;99.90;;;;;;4937120;29;20027;-71
2021/09/03 01:31:40;;;;;;;18.17;13.15;;;13.50;99.90;;;;;;4935388;29;20023;-70
2021/09/03 01:34:06;;;;;;;20.13;15.00;;;13.50;99.90;;;;;;4936940;29;20024;-71
2021/09/03 01:36:32;;;;;;;23.02;16.17;;;13.50;99.90;;;;;;4935824;29;20167;-73
2021/09/03 01:38:59;;;;;;;19.55;14.90;;;13.50;99.90;;;;;;4934600;29;20369;-70
2021/09/03 01:41:25;;;;;;;21.25;16.00;;;13.40;99.90;;;;;;4935743;29;20111;-71
2021/09/03 01:43:51;;;;;;;18.55;14.57;;;13.40;99.90;;;;;;4935267;29;20511;-70
2021/09/03 01:46:17;;;;;;;18.65;14.68;;;13.40;99.90;;;;;;4936139;29;20480;-69
2021/09/03 01:48:44;;;;;;;19.40;15.90;;;13.40;99.90;;;;;;4936272;29;20028;-70
2021/09/03 01:51:10;;;;;;;21.38;16.05;;;13.30;99.90;;;;;;4936179;29;20031;-71
2021/09/03 01:53:35;;;;;;;21.83;15.65;;;13.30;99.90;;;;;;4936763;29;20051;-70
2021/09/03 01:56:01;;;;;;;18.08;14.23;;;13.30;99.90;;;;;;4935162;29;20527;-70
2021/09/03 01:58:26;;;;;;;23.58;15.82;;;13.30;99.90;;;;;;4934773;29;20028;-70
2021/09/03 02:00:52;;;;;;;21.35;15.68;;;13.20;99.90;;;;;;4936235;29;20065;-72
2021/09/03 02:03:17;;;;;;;18.45;15.65;;;13.20;99.90;;;;;;4935023;29;20413;-70
2021/09/03 02:05:44;;;;;;;18.88;15.82;;;13.20;99.90;;;;;;4935703;29;20036;-70
2021/09/03 02:08:09;;;;;;;19.60;15.23;;;13.20;99.90;;;;;;4935214;29;20461;-71
2021/09/03 02:10:36;;;;;;;17.42;15.02;;;13.20;99.90;;;;;;4936436;29;20036;-70
2021/09/03 02:13:01;;;;;;;21.63;15.15;;;13.10;99.90;;;;;;4935373;29;20028;-71
2021/09/03 02:15:27;;;;;;;19.38;15.18;;;13.20;99.90;;;;;;4936450;29;20488;-71
2021/09/03 02:17:53;;;;;;;21.90;15.75;;;13.20;99.90;;;;;;4935933;29;20532;-72
2021/09/03 02:20:18;;;;;;;19.27;15.27;;;13.10;99.90;;;;;;4935456;29;20055;-72
2021/09/03 02:22:45;;;;;;;19.20;15.13;;;13.10;99.90;;;;;;4936048;29;20095;-73
2021/09/03 02:25:11;;;;;;;20.25;15.70;;;13.10;99.90;;;;;;4936287;29;20054;-72
2021/09/03 02:27:37;;;;;;;20.30;15.90;;;13.10;99.90;;;;;;4935344;29;20163;-71
2021/09/03 02:30:04;;;;;;;20.88;16.42;;;13.00;99.90;;;;;;4935562;29;20024;-71
2021/09/03 02:32:30;;;;;;;20.00;16.35;;;13.00;99.90;;;;;;4936171;29;20030;-70
2021/09/03 02:34:55;;;;;;;19.50;16.00;;;13.00;99.90;;;;;;4934676;29;20028;-69
2021/09/03 02:37:21;;;;;;;17.77;15.20;;;12.90;99.90;;;;;;4936042;29;20446;-70
2021/09/03 02:39:46;;;;;;;19.25;15.32;;;12.90;99.90;;;;;;4934226;29;20449;-70
2021/09/03 02:42:12;;;;;;;24.25;16.85;;;12.90;99.90;;;;;;4934047;29;20035;-70
2021/09/03 02:44:37;;;;;;;17.95;15.50;;;12.90;99.90;;;;;;4934692;29;20024;-71
2021/09/03 02:47:03;;;;;;;22.75;16.67;;;12.90;99.90;;;;;;4935450;29;20027;-70
2021/09/03 02:49:29;;;;;;;20.48;15.75;;;12.80;99.90;;;;;;4935391;29;20532;-71
2021/09/03 02:51:54;;;;;;;18.65;15.70;;;12.80;99.90;;;;;;4935601;29;20027;-73
2021/09/03 02:54:20;;;;;;;20.60;15.80;;;12.80;99.90;;;;;;4935249;29;20023;-73
2021/09/03 02:56:45;;;;;;;20.65;14.68;;;12.80;99.90;;;;;;4935393;29;20051;-70
2021/09/03 02:59:11;;;;;;;22.67;16.15;;;12.80;99.90;;;;;;4935495;29;20023;-70
2021/09/03 03:01:36;;;;;;;19.10;15.60;;;12.80;99.90;;;;;;4933868;29;20032;-72
2021/09/03 03:04:02;;;;;;;19.45;15.95;;;12.80;99.90;;;;;;4935075;29;20036;-71
2021/09/03 03:06:27;;;;;;;23.20;17.20;;;12.70;99.90;;;;;;4944030;29;20031;-70
2021/09/03 03:08:53;;;;;;;20.48;16.25;;;12.70;99.90;;;;;;4939441;28;20051;-70
2021/09/03 03:11:18;;;;;;;22.13;17.25;;;12.70;99.90;;;;;;4945842;29;20035;-70
2021/09/03 03:13:48;;;;;;;20.08;16.85;;;12.70;99.90;;;;;;4945972;28;20024;-69
2021/09/03 03:16:15;;;;;;;20.77;16.60;;;12.70;99.90;;;;;;4946142;29;20127;-69
2021/09/03 03:18:41;;;;;;;21.48;17.17;;;12.60;99.90;;;;;;4945897;29;20079;-70
2021/09/03 03:21:07;;;;;;;21.58;17.42;;;12.60;99.90;;;;;;4935169;29;20111;-72
2021/09/03 03:23:33;;;;;;;23.75;16.90;;;12.60;99.90;;;;;;4935322;29;20103;-70
2021/09/03 03:25:59;;;;;;;20.25;15.98;;;12.70;99.90;;;;;;4938929;29;20509;-71
2021/09/03 03:28:24;;;;;;;22.13;17.48;;;12.60;99.90;;;;;;4939265;29;20020;-71
2021/09/03 03:30:50;;;;;;;23.83;18.88;;;12.60;99.90;;;;;;4950664;29;20372;-73
2021/09/03 03:33:15;;;;;;;23.10;18.00;;;12.60;99.90;;;;;;4950513;28;20028;-72
2021/09/03 03:35:41;;;;;;;21.75;18.35;;;12.70;99.90;;;;;;4934808;29;20042;-71
2021/09/03 03:38:07;;;;;;;23.48;18.90;;;12.60;99.90;;;;;;4934302;29;20055;-70
2021/09/03 03:40:32;;;;;;;24.58;18.65;;;12.70;99.90;;;;;;4941785;29;20027;-70
2021/09/03 03:42:58;;;;;;;21.48;17.15;;;12.70;99.90;;;;;;4946355;29;20027;-70
2021/09/03 03:45:24;;;;;;;25.73;19.40;;;12.60;99.90;;;;;;4939776;28;20035;-70
2021/09/03 03:47:50;;;;;;;23.33;18.75;;;12.60;99.90;;;;;;4933428;29;20028;-71
2021/09/03 03:50:15;;;;;;;21.95;18.10;;;12.60;99.90;;;;;;4934093;29;20106;-70
2021/09/03 03:52:41;;;;;;;23.10;18.58;;;12.60;99.90;;;;;;4932783;29;20191;-70
2021/09/03 03:55:07;;;;;;;23.92;19.33;;;12.50;99.90;;;;;;4934807;29;20015;-69
2021/09/03 03:57:33;;;;;;;23.25;18.77;;;12.50;99.90;;;;;;4934875;29;20043;-70
2021/09/03 03:59:59;;;;;;;24.60;20.23;;;12.50;99.90;;;;;;4933676;29;20369;-69
2021/09/03 04:02:24;;;;;;;23.50;19.08;;;12.50;99.90;;;;;;4934927;29;20035;-70
2021/09/03 04:04:50;;;;;;;24.23;19.17;;;12.50;99.90;;;;;;4935043;29;20399;-70
2021/09/03 04:07:15;;;;;;;26.35;20.23;;;12.50;99.90;;;;;;4945268;29;20038;-70
2021/09/03 04:09:41;;;;;;;25.92;21.00;;;12.50;99.90;;;;;;4933353;29;20112;-70
2021/09/03 04:12:09;;;;;;;24.38;19.88;;;12.50;99.90;;;;;;4946362;29;20480;-70
2021/09/03 04:14:35;;;;;;;24.50;19.88;;;12.50;99.90;;;;;;4950560;28;20499;-70
2021/09/03 04:17:00;;;;;;;22.00;19.42;;;12.50;99.90;;;;;;4948628;29;20114;-69
2021/09/03 04:19:26;;;;;;;27.38;20.13;;;12.40;99.90;;;;;;4938864;28;20047;-69
2021/09/03 04:21:51;;;;;;;23.92;19.63;;;12.40;99.90;;;;;;4934172;29;20492;-70
2021/09/03 04:24:17;;;;;;;25.50;21.30;;;12.40;99.90;;;;;;4953737;28;20031;-69
2021/09/03 04:26:43;;;;;;;32.00;20.60;;;12.40;99.90;;;;;;4956689;28;20046;-69
2021/09/03 04:29:09;;;;;;;27.20;20.40;;;12.40;99.90;;;;;;4957223;28;20034;-69
2021/09/03 04:31:34;;;;;;;26.42;20.80;;;12.40;99.90;;;;;;4956525;29;20020;-69
2021/09/03 04:34:00;;;;;;;28.05;20.98;;;12.40;99.90;;;;;;4954098;29;20759;-69
2021/09/03 04:36:26;;;;;;;26.83;21.35;;;12.30;99.90;;;;;;4938126;29;20380;-69
2021/09/03 04:38:51;;;;;;;24.63;20.10;;;12.30;99.90;;;;;;4937696;29;20031;-71
2021/09/03 04:41:17;;;;;;;24.80;19.25;;;12.30;99.90;;;;;;4939781;29;20062;-69
2021/09/03 04:43:43;;;;;;;26.48;20.70;;;12.30;99.90;;;;;;4945415;29;20050;-70
2021/09/03 04:46:08;;;;;;;27.73;22.48;;;12.30;99.90;;;;;;4952478;28;20148;-71
2021/09/03 04:48:34;;;;;;;26.73;21.42;;;12.30;99.90;;;;;;4941133;29;20074;-70
2021/09/03 04:50:59;;;;;;;28.20;21.75;;;12.30;99.90;;;;;;4938546;29;20028;-72
2021/09/03 04:53:25;;;;;;;24.95;20.48;;;12.30;99.90;;;;;;4957124;28;20035;-70
2021/09/03 04:55:52;;;;;;;25.95;22.05;;;12.30;99.90;;;;;;4954801;29;20432;-70
2021/09/03 04:58:18;;;;;;;26.30;21.10;;;12.30;99.90;;;;;;4955684;29;20016;-70
2021/09/03 05:00:44;;;;;;;24.67;21.25;;;12.30;99.90;;;;;;4956912;28;20102;-70
2021/09/03 05:03:09;;;;;;;26.50;21.40;;;12.30;99.90;;;;;;4955109;28;20030;-69
2021/09/03 05:05:35;;;;;;;25.98;21.00;;;12.30;99.90;;;;;;4936417;29;20031;-69
2021/09/03 05:08:00;;;;;;;27.02;21.85;;;12.30;99.90;;;;;;4935369;29;20034;-69
2021/09/03 05:10:26;;;;;;;24.27;21.02;;;12.30;99.90;;;;;;4936287;29;20103;-69
2021/09/03 05:12:52;;;;;;;26.83;21.25;;;12.30;99.90;;;;;;4942951;29;20035;-69
2021/09/03 05:15:18;;;;;;;27.92;22.85;;;12.30;99.90;;;;;;4942275;28;20024;-69
2021/09/03 05:17:50;;;;;;;28.55;21.17;;;12.30;99.90;;;;;;4939914;29;20019;-70
2021/09/03 05:20:17;;;;;;;25.02;21.52;;;12.30;99.90;;;;;;4942822;29;20036;-69
2021/09/03 05:22:43;;;;;;;30.00;23.27;;;12.30;99.90;;;;;;4944825;28;20046;-69
2021/09/03 05:25:09;;;;;;;27.90;23.00;;;12.40;99.90;;;;;;4942421;29;20492;-70
2021/09/03 05:27:36;;;;;;;26.48;22.38;;;12.40;99.90;;;;;;4956324;29;20023;-70
2021/09/03 05:30:03;;;;;;;25.73;21.58;;;12.40;99.90;;;;;;4948885;28;20042;-69
2021/09/03 05:32:28;;;;;;;31.23;23.45;;;12.50;99.90;;;;;;4935905;29;20171;-69
2021/09/03 05:34:54;;;;;;;26.95;21.67;;;12.50;99.90;;;;;;4940230;29;20114;-70
2021/09/03 05:37:19;;;;;;;26.92;21.35;;;12.50;99.90;;;;;;4942931;29;20035;-70
2021/09/03 05:39:45;;;;;;;28.45;22.88;;;12.60;99.90;;;;;;4953878;28;20034;-70
2021/09/03 05:42:11;;;;;;;29.98;23.63;;;12.60;99.90;;;;;;4956340;28;20030;-69
2021/09/03 05:44:37;;;;;;;27.67;22.20;;;12.60;99.90;;;;;;4954249;29;20563;-72
2021/09/03 05:47:03;;;;;;;27.63;22.48;;;12.60;99.90;;;;;;4955678;28;20039;-70
2021/09/03 05:49:28;;;;;;;26.88;21.20;;;12.70;99.90;;;;;;4954243;28;20058;-70
2021/09/03 05:51:54;;;;;;;29.48;22.10;;;12.70;99.90;;;;;;4954803;28;20444;-70
2021/09/03 05:54:19;;;;;;;28.38;21.65;;;12.70;99.90;;;;;;4954131;28;20027;-69
2021/09/03 05:56:45;;;;;;;24.13;19.17;;;12.80;99.90;;;;;;4940341;29;20043;-71
2021/09/03 05:59:11;;;;;;;28.77;21.00;;;12.80;99.90;;;;;;4936060;29;20038;-71
2021/09/03 06:01:36;;;;;;;26.55;20.48;;;12.90;99.90;;;;;;4936698;29;20027;-70
2021/09/03 06:04:02;;;;;;;27.85;20.95;;;12.90;99.90;;;;;;4941095;29;20039;-69
2021/09/03 06:06:28;;;;;;;25.77;20.73;;;13.00;99.90;;;;;;4941106;28;20133;-70
2021/09/03 06:08:53;;;;;;;24.83;20.08;;;13.00;99.90;;;;;;4937006;29;20071;-69
2021/09/03 06:11:25;;;;;;;24.58;20.48;;;13.10;99.90;;;;;;4955064;28;20019;-68
2021/09/03 06:13:51;;;;;;;;;;;13.10;99.90;;;;;;4955742;28;20046;-71
2021/09/03 06:16:17;;;;;;;30.75;19.65;;;13.20;99.90;;;;;;4951912;29;19907;-69
2021/09/03 06:18:43;;;;;;;24.50;20.55;;;13.20;99.90;;;;;;4935467;29;20083;-70
2021/09/03 06:21:08;;;;;;;26.90;20.05;;;13.20;99.90;;;;;;4936099;29;20028;-69
2021/09/03 06:23:34;;;;;;;28.52;21.05;;;13.30;99.90;;;;;;4934657;29;20034;-71
2021/09/03 06:25:59;;;;;;;24.90;19.50;;;13.30;99.90;;;;;;4934946;29;20038;-72
2021/09/03 06:28:25;;;;;;;28.98;21.45;;;13.40;99.90;;;;;;4936297;29;20031;-71
2021/09/03 06:30:50;;;;;;;24.27;19.77;;;13.40;99.90;;;;;;4935623;29;20026;-70
2021/09/03 06:33:16;;;;;;;23.52;20.45;;;13.50;99.90;;;;;;4935519;29;20031;-73
2021/09/03 06:35:41;;;;;;;22.95;18.88;;;13.50;99.90;;;;;;4938972;29;20059;-69
2021/09/03 06:38:07;;;;;;;23.98;19.05;;;13.60;99.90;;;;;;4946001;28;20093;-70
2021/09/03 06:40:33;;;;;;;23.30;18.42;;;13.60;99.90;;;;;;4948597;29;20031;-71
2021/09/03 06:42:58;;;;;;;25.58;19.83;;;13.70;99.90;;;;;;4954680;28;20444;-74
2021/09/03 06:45:24;;;;;;;24.52;19.17;;;13.80;99.90;;;;;;4953937;29;20086;-70
2021/09/03 06:47:50;;;;;;;23.05;18.38;;;13.80;99.90;;;;;;4953640;28;20016;-71
2021/09/03 06:50:16;;;;;;;25.92;20.52;;;13.90;99.90;;;;;;4954202;28;20031;-70
2021/09/03 06:52:42;;;;;;;26.10;19.80;;;14.00;99.90;;;;;;4954714;28;20030;-70
2021/09/03 06:55:08;;;;;;;21.95;17.80;;;14.10;99.90;;;;;;4937848;28;20020;-70
2021/09/03 06:57:34;;;;;;;28.35;19.85;;;14.10;99.90;;;;;;4935230;29;20027;-70
2021/09/03 06:59:59;;;;;;;21.92;18.50;;;14.20;99.90;;;;;;4936148;29;20031;-68
2021/09/03 07:02:25;;;;;;;29.77;21.42;;;14.30;99.90;;;;;;4951597;28;20035;-65
2021/09/03 07:04:50;;;;;;;26.25;20.42;;;14.40;99.90;;;;;;4945971;28;20488;-69
2021/09/03 07:07:16;;;;;;;23.85;17.33;;;14.50;99.90;;;;;;4945642;28;20065;-71
2021/09/03 07:09:42;;;;;;;22.42;17.90;;;14.60;99.90;;;;;;4934427;29;20031;-71
2021/09/03 07:12:07;;;;;;;19.17;15.38;;;14.60;99.90;;;;;;4934442;29;20032;-70
2021/09/03 07:14:33;;;;;;;19.98;16.13;;;14.60;99.90;;;;;;4934476;29;20024;-69
2021/09/03 07:16:59;;;;;;;20.15;16.63;;;14.70;99.90;;;;;;4934475;29;20376;-69
2021/09/03 07:19:24;;;;;;;25.05;17.85;;;14.70;99.90;;;;;;4943762;29;20126;-68
2021/09/03 07:21:50;;;;;;;23.02;17.20;;;14.80;99.90;;;;;;4952284;28;20031;-72
2021/09/03 07:24:16;;;;;;;19.45;17.05;;;14.90;99.90;;;;;;4954060;28;20469;-68
2021/09/03 07:26:41;;;;;;;21.25;15.63;;;15.00;99.90;;;;;;4949823;28;20039;-68
2021/09/03 07:29:07;;;;;;;26.85;19.55;;;15.00;99.90;;;;;;4934522;29;20040;-70
2021/09/03 07:31:33;;;;;;;21.95;17.25;;;15.10;99.90;;;;;;4934717;29;20034;-70
2021/09/03 07:33:59;;;;;;;23.95;16.35;;;15.20;99.90;;;;;;4935447;29;20035;-70
2021/09/03 07:36:24;;;;;;;18.65;14.80;;;15.30;99.90;;;;;;4936825;29;20032;-68
2021/09/03 07:38:50;;;;;;;26.88;18.50;;;15.40;99.90;;;;;;4934622;29;20036;-69
2021/09/03 07:41:15;;;;;;;20.05;16.13;;;15.50;99.90;;;;;;4934531;29;20472;-68
2021/09/03 07:43:41;;;;;;;20.42;15.60;;;15.60;99.90;;;;;;4933737;29;20027;-68
2021/09/03 07:46:07;;;;;;;21.10;16.08;;;15.70;99.90;;;;;;4934653;29;20100;-70
2021/09/03 07:48:33;;;;;;;23.10;16.98;;;15.70;99.90;;;;;;4934488;29;20106;-71
2021/09/03 07:50:59;;;;;;;19.05;14.90;;;15.80;99.90;;;;;;4942324;29;20023;-70
2021/09/03 07:53:24;;;;;;;19.17;15.18;;;15.90;99.90;;;;;;4953644;28;20024;-70
2021/09/03 07:55:51;;;;;;;18.33;13.32;;;16.00;99.90;;;;;;4945813;28;20127;-70
2021/09/03 07:58:17;;;;;;;18.85;14.27;;;16.00;99.90;;;;;;4932508;28;20374;-69
2021/09/03 08:00:43;;;;;;;20.08;14.25;;;16.10;99.90;;;;;;4935439;29;20043;-69
2021/09/03 08:03:08;;;;;;;20.55;14.35;;;16.20;99.90;;;;;;4938436;29;20457;-71
2021/09/03 08:05:34;;;;;;;19.20;13.98;;;16.30;99.90;;;;;;4946989;29;20087;-70
2021/09/03 08:08:02;;;;;;;17.60;12.75;;;16.50;99.90;;;;;;4949937;28;20730;-72
2021/09/03 08:10:31;;;;;;;14.98;12.45;;;16.60;99.90;;;;;;4938294;29;20046;-72
2021/09/03 08:12:57;;;;;;;14.93;12.38;;;16.60;99.90;;;;;;4936535;29;20024;-72
2021/09/03 08:15:23;;;;;;;14.82;10.90;;;16.70;99.90;;;;;;4937996;29;20105;-73
2021/09/03 08:17:48;;;;;;;15.00;11.43;;;16.70;99.90;;;;;;4937504;29;20024;-72
2021/09/03 08:20:14;;;;;;;13.20;10.60;;;16.80;99.90;;;;;;4937377;29;20138;-73
2021/09/03 08:22:40;;;;;;;15.63;11.93;;;16.80;99.90;;;;;;4939108;29;20027;-73
2021/09/03 08:25:06;;;;;;;15.07;11.70;;;16.80;99.90;;;;;;4937166;29;20031;-75
2021/09/03 08:27:32;;;;;;;15.18;12.57;;;16.90;99.90;;;;;;4955401;29;20043;-72
2021/09/03 08:29:58;;;;;;;15.73;11.75;;;16.90;99.90;;;;;;4956353;28;20054;-74
2021/09/03 08:32:24;;;;;;;14.40;10.43;;;17.00;99.90;;;;;;4956424;28;20065;-75
2021/09/03 08:34:49;;;;;;;12.45;10.27;;;17.00;99.90;;;;;;4955704;29;20604;-74
2021/09/03 08:37:15;;;;;;;15.43;9.80;;;17.10;99.90;;;;;;4956774;28;20058;-72
2021/09/03 08:39:41;;;;;;;14.38;10.65;;;17.20;99.90;;;;;;4950675;28;20024;-73
2021/09/03 08:42:07;;;;;;;15.30;9.98;;;17.30;99.90;;;;;;4951534;28;20042;-73
2021/09/03 08:44:33;;;;;;;11.43;9.52;;;17.40;99.90;;;;;;4956198;28;20047;-74
2021/09/03 08:46:59;;;;;;;14.15;10.73;;;17.50;99.90;;;;;;4951898;28;20046;-73
2021/09/03 08:49:26;;;;;;;14.73;11.88;;;17.60;99.90;;;;;;4951779;28;20028;-69
2021/09/03 08:51:52;;;;;;;14.40;12.90;;;17.60;99.90;;;;;;4937234;29;20473;-69
2021/09/03 08:54:21;;;;;;;13.60;10.98;;;17.70;99.90;;;;;;4936775;29;20016;-68
2021/09/03 08:56:47;;;;;;;15.57;10.75;;;17.80;99.90;;;;;;4936670;29;20020;-69
2021/09/03 08:59:13;;;;;;;14.35;9.55;;;18.00;99.90;;;;;;4937613;29;20034;-68
2021/09/03 09:01:39;;;;;;;15.63;10.75;;;18.00;99.90;;;;;;4938116;29;20556;-71
2021/09/03 09:04:13;;;;;;;13.63;10.45;;;18.10;99.90;;;;;;4937476;29;20074;-71
2021/09/03 09:06:39;;;;;;;13.15;9.60;;;18.20;99.90;;;;;;4937651;29;20040;-70
2021/09/03 09:09:06;;;;;;;14.70;9.35;;;18.20;99.90;;;;;;4936631;29;20191;-71
2021/09/03 09:11:33;;;;;;;15.90;9.40;;;18.30;99.90;;;;;;4943190;28;20031;-69
2021/09/03 09:14:04;;;;;;;11.63;9.45;;;18.40;99.90;;;;;;4935629;29;20392;-72
2021/09/03 09:16:31;;;;;;;14.02;10.05;;;18.40;99.90;;;;;;4936994;29;20500;-72
2021/09/03 09:18:59;;;;;;;16.75;10.40;;;18.50;99.90;;;;;;4936951;29;20046;-73
2021/09/03 09:21:33;;;;;;;14.45;9.32;;;18.60;99.90;;;;;;4936673;29;20031;-70
2021/09/03 09:24:06;;;;;;;12.90;9.55;;;18.70;99.90;;;;;;4937851;29;20556;-69
2021/09/03 09:26:55;;;;;;;16.05;10.20;;;18.80;99.90;;;;;;4937251;29;20612;-70
2021/09/03 09:29:26;;;;;;;11.75;9.45;;;18.80;99.90;;;;;;4936753;29;20103;-72
2021/09/03 09:31:57;;;;;;;12.48;8.73;;;18.90;99.90;;;;;;4937909;29;20034;-71
2021/09/03 09:34:28;;;;;;;9.70;8.07;;;19.00;99.90;;;;;;4937169;29;20020;-71
2021/09/03 09:36:55;;;;;;;13.07;9.15;;;19.10;99.90;;;;;;4936032;29;20062;-71
2021/09/03 09:39:23;;;;;;;9.52;8.20;;;19.10;99.90;;;;;;4950112;29;20031;-69
2021/09/03 09:41:59;;;;;;;11.32;8.55;;;19.20;99.90;;;;;;4955921;28;20055;-71
2021/09/03 09:44:29;;;;;;;10.25;8.93;;;19.20;99.90;;;;;;4953873;28;20111;-72
2021/09/03 09:47:03;;;;;;;13.55;9.07;;;19.30;99.90;;;;;;4953812;28;20119;-70
2021/09/03 09:49:29;;;;;;;14.60;10.20;;;19.30;99.90;;;;;;4936456;29;20028;-71
2021/09/03 09:51:54;;;;;;;12.30;9.10;;;19.30;99.90;;;;;;4936450;29;20035;-70
2021/09/03 09:54:22;;;;;;;11.75;8.75;;;19.30;99.90;;;;;;4937130;29;20024;-71
2021/09/03 09:56:49;;;;;;;12.65;8.70;;;19.40;99.90;;;;;;4934566;29;20472;-71
2021/09/03 09:59:15;;;;;;;11.60;8.77;;;19.40;99.90;;;;;;4937395;29;20039;-70
2021/09/03 10:01:43;;;;;;;16.63;9.95;;;19.40;99.90;;;;;;4939533;29;20027;-71
2021/09/03 10:04:11;;;;;;;11.73;8.77;;;19.50;99.90;;;;;;4946121;28;20031;-73
2021/09/03 10:06:38;;;;;;;15.95;10.15;;;19.50;99.90;;;;;;4954915;28;20133;-73
2021/09/03 10:09:07;;;;;;;9.45;8.15;;;19.60;99.90;;;;;;4944703;28;20229;-71
2021/09/03 10:11:34;;;;;;;17.85;8.85;;;19.60;99.90;;;;;;4935383;29;20030;-72
2021/09/03 10:14:00;;;;;;;14.18;8.85;;;19.70;99.90;;;;;;4934322;29;20095;-72
2021/09/03 10:16:26;;;;;;;13.20;9.50;;;19.70;99.90;;;;;;4936967;29;20500;-72
2021/09/03 10:18:55;;;;;;;12.00;9.30;;;19.70;99.90;;;;;;4934903;29;20051;-73
2021/09/03 10:21:26;;;;;;;15.00;9.82;;;19.70;99.90;;;;;;4946288;29;20019;-74
2021/09/03 10:24:03;;;;;;;13.17;9.50;;;19.70;99.90;;;;;;4942967;28;20063;-76
2021/09/03 10:26:34;;;;;;;15.65;10.05;;;19.70;99.90;;;;;;4940742;29;20043;-73
2021/09/03 10:29:16;;;;;;;12.32;8.27;;;19.70;99.90;;;;;;4933499;28;20036;-72
2021/09/03 10:32:08;;;;;;;9.43;7.30;;;19.80;99.90;;;;;;4953996;28;20134;-73
2021/09/03 10:37:30;;;;;;;12.95;7.97;;;19.90;99.90;;;;;;4953874;28;20042;-68
2021/09/03 10:39:56;;;;;;;18.80;9.32;;;20.00;99.90;;;;;;4944690;29;20031;-69
2021/09/03 10:45:39;;;;;;;13.13;8.15;;;20.20;99.90;;;;;;4952977;29;20054;-69
2021/09/03 10:48:11;;;;;;;10.50;7.45;;;20.20;99.90;;;;;;4954473;28;20106;-70
2021/09/03 10:50:51;;;;;;;10.73;8.05;;;20.30;99.90;;;;;;4944430;28;20020;-73
2021/09/03 10:53:27;;;;;;;13.53;8.10;;;20.30;99.90;;;;;;4939124;29;20023;-69
2021/09/03 10:56:04;;;;;;;12.18;8.18;;;20.40;99.90;;;;;;4941916;29;20023;-75
2021/09/03 10:58:33;;;;;;;8.70;7.30;;;20.50;99.90;;;;;;4945324;29;20064;-70
2021/09/03 11:01:11;;;;;;;10.48;7.18;;;20.50;99.90;;;;;;4933010;29;20020;-71
2021/09/03 11:03:47;;;;;;;9.98;7.80;;;20.60;99.90;;;;;;4934131;29;20473;-73
2021/09/03 11:06:27;;;;;;;11.70;8.15;;;20.60;99.90;;;;;;4935455;29;20115;-73
2021/09/03 11:09:26;;;;;;;10.68;7.72;;;20.70;99.90;;;;;;4934315;29;20035;-74
2021/09/03 11:11:54;;;;;;;10.98;7.43;;;20.70;99.90;;;;;;4893275;29;20076;-76
2021/09/03 11:14:28;;;;;;;11.50;8.52;;;20.60;99.90;;;;;;4932952;29;20030;-75
2021/09/03 11:17:01;;;;;;;9.35;8.02;;;20.70;99.90;;;;;;4934951;29;20031;-72
2021/09/03 11:19:28;;;;;;;11.57;7.55;;;20.80;99.90;;;;;;4939750;29;20094;-70
2021/09/03 11:21:58;;;;;;;10.85;7.45;;;20.80;99.90;;;;;;4953233;28;20054;-72
2021/09/03 11:24:31;;;;;;;9.60;7.07;;;20.90;99.90;;;;;;4952803;28;20015;-72
2021/09/03 11:26:57;;;;;;;10.18;7.10;;;20.90;99.90;;;;;;4945570;28;20039;-71
2021/09/03 11:29:27;;;;;;;9.60;7.80;;;20.90;99.90;;;;;;4936283;29;20488;-70
2021/09/03 11:31:55;;;;;;;10.77;7.45;;;20.90;99.90;;;;;;4953924;28;20078;-70
2021/09/03 11:34:43;;;;;;;9.93;7.53;;;20.90;99.90;;;;;;4952234;29;20058;-72
2021/09/03 11:37:09;;;;;;;11.82;8.77;;;20.90;99.90;;;;;;4952226;29;20027;-73
2021/09/03 11:39:36;;;;;;;10.38;7.90;;;21.00;99.90;;;;;;4952683;29;20019;-69
2021/09/03 11:42:02;;;;;;;10.15;7.40;;;21.00;99.90;;;;;;4949943;29;20027;-74
2021/09/03 11:44:28;;;;;;;9.93;7.93;;;21.10;99.90;;;;;;4941277;28;20031;-73
2021/09/03 11:46:53;;;;;;;8.40;6.78;;;21.20;99.90;;;;;;4934408;29;20043;-72
2021/09/03 11:49:23;;;;;;;25.55;11.27;;;21.30;99.90;;;;;;4934063;29;20024;-72
2021/09/03 11:52:03;;;;;;;65.30;20.52;;;21.30;99.90;;;;;;4935537;29;20038;-78
2021/09/03 11:54:28;;;;;;;44.50;16.15;;;21.40;99.90;;;;;;4947382;29;20024;-73
2021/09/03 11:56:58;;;;;;;17.75;9.50;;;21.50;99.90;;;;;;4935026;29;20027;-71
2021/09/03 11:59:24;;;;;;;14.20;7.85;;;21.50;99.90;;;;;;4953848;28;20019;-75
2021/09/03 12:02:16;;;;;;;12.77;7.57;;;21.60;99.90;;;;;;4952266;29;20476;-72
2021/09/03 12:04:41;;;;;;;10.50;7.72;;;21.60;99.90;;;;;;4947434;29;20102;-77
2021/09/03 12:07:18;;;;;;;8.75;7.15;;;21.60;99.90;;;;;;4952263;29;20492;-74
2021/09/03 12:09:44;;;;;;;11.00;6.78;;;21.70;99.90;;;;;;4951807;29;20030;-74
2021/09/03 12:12:09;;;;;;;11.30;7.30;;;21.70;99.90;;;;;;4946131;28;20118;-72
2021/09/03 12:14:35;;;;;;;9.95;7.40;;;21.80;99.90;;;;;;4934069;29;20547;-74
2021/09/03 12:17:01;;;;;;;8.38;6.55;;;21.80;99.90;;;;;;4933656;29;20024;-76
2021/09/03 12:19:27;;;;;;;9.85;6.70;;;21.90;99.90;;;;;;4934446;29;20075;-72
2021/09/03 12:21:52;;;;;;;11.43;7.50;;;21.90;99.90;;;;;;4932999;29;20024;-74
2021/09/03 12:24:21;;;;;;;11.32;6.40;;;21.90;99.90;;;;;;4932497;29;20036;-74
2021/09/03 12:26:53;;;;;;;11.48;7.78;;;22.00;99.90;;;;;;4935067;29;20047;-76
2021/09/03 12:29:21;;;;;;;11.38;7.72;;;22.10;99.90;;;;;;4934985;29;20083;-79
2021/09/03 12:31:58;;;;;;;10.57;7.18;;;22.20;99.90;;;;;;4933643;29;20115;-73
2021/09/03 12:34:25;;;;;;;13.27;7.95;;;22.20;99.90;;;;;;4939581;29;20383;-77
2021/09/03 12:37:00;;;;;;;7.20;6.05;;;22.30;99.90;;;;;;4952373;29;20046;-75